ナイロビ の空港の天気 - METARとTAF

ジョモ・ケニヤッタ国際空港 ( HKJK / NBO ) - ケニア ナイロビ
飛行場実況気象(Metar)
観測時間01/19 14:00 EAT (01/19 11:00 UTC)
風向・風速東北東 5m/s
視程10km以上
天気現象
少しの雲 雲底高度 820m
気温27℃
湿度39%
気圧1020hPa
METARHKJK 191100Z 07009KT 9999 FEW027 27/12 Q1020 NOSIG
過去の天気等 Google飛行場航空写真 Wunderground天気予報

過去48時間のMETAR

飛行場予報(TAF)
発表時間: 1/19 08:00 EAT (1/19 05:00 UTC)
予報対象時間: 19日9時 EAT ~ 20日15時 EAT
風向・風速東北東 5m/s
視程10km以上
少しの雲 雲底高度 640m
19日12時 EAT ~ 19日15時 EAT に徐々に
視程10km以上
なし
19日15時 EAT ~ 19日18時 EAT に徐々に
少しの積乱雲 雲底高度 700m
全天の4割程度の雲 雲底高度 730m
19日21時 EAT ~ 19日24時 EAT に徐々に
全天の8割程度の雲 雲底高度 580m
20日6時 EAT ~ 20日9時 EAT に徐々に
風向・風速北北東 3m/s
少しの雲 雲底高度 490m
20日3時 EAT ~ 20日6時 EAT に徐々に
風向・風速北 3m/s
少しの雲 雲底高度 550m
全天の4割程度の雲 雲底高度 610m
20日9時 EAT ~ 20日12時 EAT に徐々に
風向・風速東北東 5m/s
少しの雲 雲底高度 700m
TAF HKJK 190500Z 1906/2012 06010KT 9999 FEW021
BECMG 1909/1912 CAVOK
BECMG 1912/1915 FEW023CB SCT024
BECMG 1918/1921 BKN019
BECMG 2003/2006 02005KT FEW016
BECMG 2000/2003 36005KT FEW018 SCT020
BECMG 2006/2009 06010KT FEW023